Merry Christmas and Happy New Year!

 

Sretan Božić i Nova godina!

 

METAR

METAR LDZA 181200Z 22005KT 150V280 CAVOK 30/16 Q1016 NOSIG =
METAR LDSP 181200Z 23014KT CAVOK 28/14 Q1017 NOSIG=
METAR LDDU 181200Z 28008KT 230V340 9999 FEW055 24/17 Q1017 BECMG 28008KT =
METAR LDZD 181200Z 25010KT 210V280 9999 FEW050 29/10 Q1017 BECMG 31010KT =
METAR LDPL 181200Z 18005KT 120V290 CAVOK 29/17 Q1018 NOSIG=
METAR LDOS 181200Z 36005KT 280V050 CAVOK 30/13 Q1016=
METAR LDSB 181200Z 25008KT 170V320 CAVOK 28/09 Q1019=
METAR LDRI 181200Z 25006KT 180V330 CAVOK 28/16 Q1018=
METAR LDLO 181200Z 21007KT CAVOK 26/18 Q1018=

TAF

TAF LDZA 181125Z 1812/1912 15004KT CAVOK
                 TX32/1814Z TN17/1903Z
    PROB30 TEMPO 1812/1815 22006KT=         
TAF LDSP 181125Z 1812/1912 23014KT CAVOK
                 TX29/1814Z TN20/1904Z
           BECMG 1816/1818 34006KT
           BECMG 1909/1911 23012KT=         
TAF LDDU 181125Z 1812/1912 28008KT CAVOK
                 TX26/1814Z TN20/1904Z
           BECMG 1817/1819 02007KT=         
TAF LDZD 181125Z 1812/1912 25010KT CAVOK
                 TX30/1814Z TN17/1904Z
           BECMG 1812/1814 31010KT
           BECMG 1816/1818 31005KT
           BECMG 1908/1910 31014KT=         
TAF LDPL 181125Z 1812/1912 21006KT CAVOK
                 TX30/1911Z TN18/1903Z
           TEMPO 1812/1816 27007KT
           BECMG 1909/1911 28010KT=         
TAF LDOS 181125Z 1812/1912 10005KT CAVOK
                 TX30/1814Z TN16/1903Z
           BECMG 1822/1900 30007KT=         
TAF LDRI 181125Z 1812/1912 27006KT CAVOK
                 TX30/1814Z TN20/1903Z
    PROB30 TEMPO 1812/1816 32007KT
           BECMG 1910/1912 32007KT=         
TAF LDSB 181125Z 1812/1912 22009KT CAVOK
                 TX28/1814Z TN18/1904Z
           BECMG 1815/1817 35007KT
           BECMG 1909/1911 21010KT=         
TAF LDLO 181125Z 1812/1912 21007KT CAVOK
                 TX30/1814Z TN21/1902Z
           BECMG 1815/1817 30005KT=

SIGMET

AIRMET

If you cannot log in with your user account, please contact stjepko.jancijev@crocontrol.hr.
Specifically, the website deactivates user accounts that have not been used for more than 365 days, so they must be reactivated.
 

         

      Politika MET podataka      

 

Ukoliko se svojim korisničkim računom ne možete logirati na web stranicu, molim vas da se obratite na stjepko.jancijev@crocontrol.hr.

Naime, web stranica deaktivira korisničke račune koji nisu korišteni više od 365 dana te ih je potrebno ponovno aktivirati.